Costa Serena — ICAZ — position and weather

sailwx.info

Track history (hours):
 
Tides and Currents Weather Stations Pressure Air Temp Water Temp Dewpoint Dewpoint Depression Visibility Wind Speed Wind Dir Waves Ship Positions

Costa Serena

Last reported at 2018-Feb-18 11:00 UTC. Time now 2018-Feb-19 10:14 UTC.
Position N 33°54' E 129°48'.

Length 290 m.

Type: Ship. MMSI: 247187600.

Wind from 040 at 10 knots

Barometer 1006.7 mb
Air temperature 10.7 ° C
Visibility: greater than 5.4 NM
Dewpoint 6.9 ° C
Water temperature 10.7 ° C

Date/timePositionNaut miles runAvg speedWind from/ knotsBaromVisibWave heightAir tempDewpointWater temp
2018-Feb-18 11:00N 33°54' E 129°48'739.4 040 / 101006.7 5.4 10.7 6.910.7
2018-Feb-18 10:48N 33°55' E 129°57'618.8
2018-Feb-18 10:28N 33°53' E 130°04'919.0
2018-Feb-18 10:00N 33°47' E 130°11'917.6
2018-Feb-18 09:30N 33°40' E 130°17'611.5
2018-Feb-18 09:00N 33°37' E 130°23'1 1.3
2018-Feb-18 08:25N 33°37' E 130°24'0 0.0
2018-Feb-18 07:55N 33°37' E 130°24'0 0.0
2018-Feb-18 07:25N 33°37' E 130°24'0 0.0
2018-Feb-18 07:00N 33°37' E 130°24'0 0.0
2018-Feb-18 06:27N 33°37' E 130°24'0 0.0
2018-Feb-18 05:57N 33°37' E 130°24'0 0.0
2018-Feb-18 05:27N 33°37' E 130°24'0 0.0
2018-Feb-18 04:56N 33°37' E 130°24'0 0.0
2018-Feb-18 04:26N 33°37' E 130°24'0 0.0
2018-Feb-18 03:56N 33°37' E 130°24'0 0.0
2018-Feb-18 03:26N 33°37' E 130°24'0 0.0
2018-Feb-18 02:55N 33°37' E 130°24'0 0.0
2018-Feb-18 02:25N 33°37' E 130°24'0 0.0
2018-Feb-18 01:55N 33°37' E 130°24'0 0.0
2018-Feb-18 01:25N 33°37' E 130°24'0 0.0
2018-Feb-18 00:55N 33°37' E 130°24'0 0.0
2018-Feb-18 00:30N 33°37' E 130°24'0 0.0
2018-Feb-18 00:00N 33°37' E 130°24'0 0.0
2018-Feb-17 23:30N 33°37' E 130°24'0 0.0
2018-Feb-17 23:00N 33°37' E 130°24'0 0.0
2018-Feb-17 22:30N 33°37' E 130°24'0 0.0
2018-Feb-17 22:00N 33°37' E 130°24'0 0.3
2018-Feb-17 21:30N 33°37' E 130°24'4 8.0
2018-Feb-17 21:00N 33°39' E 130°19'510.5
2018-Feb-17 20:30N 33°43' E 130°15'612.7
2018-Feb-17 20:00N 33°48' E 130°11'713.7
2018-Feb-17 19:30N 33°53' E 130°05'612.8
2018-Feb-17 19:00N 33°55' E 129°58'813.5
2018-Feb-17 18:27N 33°55' E 129°49'69 9.3
2018-Feb-17 11:00N 32°48' E 129°30'52421.8 350 / 181022.410.8 9.7 9.715.7
2018-Feb-16 11:00N 31°06' E 139°36'56023.3 030 / 121013.7 2.2 11.4 3.110.4
2018-Feb-15 11:00N 32°06' E 128°42'18315.2 170 / 201004.7 2.2 7.7 3.517.2
2018-Feb-14 23:00N 32°12' E 125°06'13314.3 010 / 301006.7 2.2 8.7 6.8 9.7
2018-Feb-14 13:40N 31°06' E 122°50'212.6
2018-Feb-14 13:29N 31°06' E 122°47'612.3
2018-Feb-14 13:00N 31°06' E 122°40'812.8
2018-Feb-14 12:22N 31°06' E 122°31'616.1
2018-Feb-14 12:00N 31°06' E 122°24'6 7.0 170 / 181002.7 1.1 7.7 3.5 7.7
2018-Feb-14 11:12N 31°07' E 122°18'1013.1
2018-Feb-14 10:24N 31°13' E 122°08'513.3
2018-Feb-14 10:00N 31°14' E 122°02'1114.5
2018-Feb-14 09:13N 31°17' E 121°49'314.0
2018-Feb-14 09:00N 31°18' E 121°46'711.0
2018-Feb-14 08:24N 31°21' E 121°39'511.9
2018-Feb-14 08:00N 31°24' E 121°34'4 7.0
2018-Feb-14 07:30N 31°25' E 121°30'0 0.0
2018-Feb-14 03:44N 31°25' E 121°30'0 0.0
2018-Feb-14 03:25N 31°25' E 121°30'0 0.0
2018-Feb-14 02:56N 31°25' E 121°30'0 0.0
2018-Feb-14 02:30N 31°25' E 121°30'0 0.0
2018-Feb-14 01:58N 31°25' E 121°30'0 0.0
2018-Feb-14 01:24N 31°25' E 121°30'0 0.0
2018-Feb-14 00:39N 31°25' E 121°30'0 0.0
2018-Feb-14 00:30N 31°25' E 121°30'0 0.0
2018-Feb-14 00:00N 31°25' E 121°30'0 0.0
2018-Feb-13 23:29N 31°25' E 121°30'0 0.7
2018-Feb-13 22:59N 31°25' E 121°31'5 8.6
2018-Feb-13 22:28N 31°23' E 121°36'511.8
2018-Feb-13 22:00N 31°20' E 121°41'610.8
2018-Feb-13 21:29N 31°18' E 121°47'612.3
2018-Feb-13 20:59N 31°16' E 121°54'612.0
2018-Feb-13 20:30N 31°15' E 122°00'611.8
2018-Feb-13 20:00N 31°13' E 122°07'611.9
2018-Feb-13 19:30N 31°10' E 122°13'612.6
2018-Feb-13 19:00N 31°06' E 122°19'712.6
2018-Feb-13 18:27N 31°07' E 122°27'8513.1
2018-Feb-13 12:00N 31°06' E 124°06'159 3.2 180 / 251010.7 2.2 8.4 8.410.7
2018-Feb-11 11:00N 31°48' E 127°06'5413.5 330 / 301017.2 2.2 5.7 1.117.2
2018-Feb-11 07:00N 31°30' E 126°06'14612.1 290 / 201023.7 5.4 8.4-1.014.4
2018-Feb-10 19:00N 31°06' E 123°18'4012.0 010 / 301027.4 7.4 0.514.4
2018-Feb-10 15:38N 31°06' E 122°31'514.8
2018-Feb-10 15:17N 31°06' E 122°25'511.4
2018-Feb-10 14:52N 31°06' E 122°19'1713.0
2018-Feb-10 13:34N 31°14' E 122°02'614.3
2018-Feb-10 13:09N 31°15' E 121°55'214.5
2018-Feb-10 13:00N 31°16' E 121°53'2121.0
2018-Feb-10 12:00N 31°24' E 121°30'726.7 020 / 131012.2 5.4 5.7 1.1 8.7
2018-Feb-10 11:43N 31°22' E 121°38'211.1
2018-Feb-10 11:30N 31°23' E 121°36'510.3
2018-Feb-10 11:00N 31°25' E 121°30'0 0.2
2018-Feb-10 10:28N 31°25' E 121°30'0 0.0
2018-Feb-10 09:55N 31°25' E 121°30'0 0.0
2018-Feb-10 09:28N 31°25' E 121°30'0 0.0
2018-Feb-10 08:42N 31°25' E 121°30'0 0.0
2018-Feb-10 08:30N 31°25' E 121°30'1 1.5
2018-Feb-10 08:00N 31°24' E 121°30'118.9 010 / 201013.2 2.2 8.4 6.4 8.7
2018-Feb-10 07:57N 31°25' E 121°30'0 0.0
2018-Feb-10 07:30N 31°25' E 121°30'0 0.0
2018-Feb-10 07:00N 31°25' E 121°30'0 0.0
2018-Feb-10 06:17N 31°25' E 121°30'0 0.0
2018-Feb-10 05:59N 31°25' E 121°30'0 0.0
2018-Feb-10 05:20N 31°25' E 121°30'0 0.0
2018-Feb-10 04:38N 31°25' E 121°30'0 0.0
2018-Feb-10 04:22N 31°25' E 121°30'0 0.0
2018-Feb-10 03:58N 31°25' E 121°30'0 0.0
2018-Feb-10 03:28N 31°25' E 121°30'0 0.0
2018-Feb-10 02:49N 31°25' E 121°30'0 0.0
2018-Feb-10 02:28N 31°25' E 121°30'0 0.0
2018-Feb-10 01:57N 31°25' E 121°30'0 0.0
2018-Feb-10 01:30N 31°25' E 121°30'0 0.0
2018-Feb-10 00:48N 31°25' E 121°30'0 0.0
2018-Feb-10 00:18N 31°25' E 121°30'0 0.0
2018-Feb-09 23:51N 31°25' E 121°30'0 0.1
2018-Feb-09 23:30N 31°25' E 121°30'2 3.2
2018-Feb-09 23:00N 31°24' E 121°32'311.2
2018-Feb-09 22:46N 31°23' E 121°35'2910.5
2018-Feb-09 20:00N 31°13' E 122°07'9560.8
2018-Feb-09 20:00N 31°06' E 122°12'3 7.0 320 / 121020.4 0.5 8.7 8.710.4
2018-Feb-09 19:30N 31°09' E 122°13'14311.4
2018-Feb-09 07:00N 31°00' E 125°00'41 5.9 180 / 101019.7 5.4 7.4 3.110.4
2018-Feb-09 00:00N 31°00' E 125°48'11328.3 250 / 81011.4 5.4 9.2 2.816.4
2018-Feb-08 20:00N 31°00' E 128°00'11318.9 180 / 101021.710.8 9.7 2.718.4
2018-Feb-08 14:00N 31°00' E 130°12'   070 / 101022.210.8 10.0 4.1
Track history (hours):
 
Tides and Currents Weather Stations Pressure Air Temp Water Temp Dewpoint Dewpoint Depression Visibility Wind Speed Wind Dir Waves Ship Positions

Costa Serena

Last reported at 2018-Feb-18 11:00 UTC. Time now 2018-Feb-19 10:14 UTC.
Position N 33°54' E 129°48'.

Length 290 m.

Type: Ship. MMSI: 247187600.

Wind from 040 at 10 knots

Barometer 1006.7 mb
Air temperature 10.7 ° C
Visibility: greater than 5.4 NM
Dewpoint 6.9 ° C
Water temperature 10.7 ° C

Date/timePositionNaut miles runAvg speedWind from/ knotsBaromVisibWave heightAir tempDewpointWater temp
2018-Feb-18 11:00N 33°54' E 129°48'739.4 040 / 101006.7 5.4 10.7 6.910.7
2018-Feb-18 10:48N 33°55' E 129°57'618.8
2018-Feb-18 10:28N 33°53' E 130°04'919.0
2018-Feb-18 10:00N 33°47' E 130°11'917.6
2018-Feb-18 09:30N 33°40' E 130°17'611.5
2018-Feb-18 09:00N 33°37' E 130°23'1 1.3
2018-Feb-18 08:25N 33°37' E 130°24'0 0.0
2018-Feb-18 07:55N 33°37' E 130°24'0 0.0
2018-Feb-18 07:25N 33°37' E 130°24'0 0.0
2018-Feb-18 07:00N 33°37' E 130°24'0 0.0
2018-Feb-18 06:27N 33°37' E 130°24'0 0.0
2018-Feb-18 05:57N 33°37' E 130°24'0 0.0
2018-Feb-18 05:27N 33°37' E 130°24'0 0.0
2018-Feb-18 04:56N 33°37' E 130°24'0 0.0
2018-Feb-18 04:26N 33°37' E 130°24'0 0.0
2018-Feb-18 03:56N 33°37' E 130°24'0 0.0
2018-Feb-18 03:26N 33°37' E 130°24'0 0.0
2018-Feb-18 02:55N 33°37' E 130°24'0 0.0
2018-Feb-18 02:25N 33°37' E 130°24'0 0.0
2018-Feb-18 01:55N 33°37' E 130°24'0 0.0
2018-Feb-18 01:25N 33°37' E 130°24'0 0.0
2018-Feb-18 00:55N 33°37' E 130°24'0 0.0
2018-Feb-18 00:30N 33°37' E 130°24'0 0.0
2018-Feb-18 00:00N 33°37' E 130°24'0 0.0
2018-Feb-17 23:30N 33°37' E 130°24'0 0.0
2018-Feb-17 23:00N 33°37' E 130°24'0 0.0
2018-Feb-17 22:30N 33°37' E 130°24'0 0.0
2018-Feb-17 22:00N 33°37' E 130°24'0 0.3
2018-Feb-17 21:30N 33°37' E 130°24'4 8.0
2018-Feb-17 21:00N 33°39' E 130°19'510.5
2018-Feb-17 20:30N 33°43' E 130°15'612.7
2018-Feb-17 20:00N 33°48' E 130°11'713.7
2018-Feb-17 19:30N 33°53' E 130°05'612.8
2018-Feb-17 19:00N 33°55' E 129°58'813.5
2018-Feb-17 18:27N 33°55' E 129°49'69 9.3
2018-Feb-17 11:00N 32°48' E 129°30'52421.8 350 / 181022.410.8 9.7 9.715.7
2018-Feb-16 11:00N 31°06' E 139°36'56023.3 030 / 121013.7 2.2 11.4 3.110.4
2018-Feb-15 11:00N 32°06' E 128°42'18315.2 170 / 201004.7 2.2 7.7 3.517.2
2018-Feb-14 23:00N 32°12' E 125°06'13314.3 010 / 301006.7 2.2 8.7 6.8 9.7
2018-Feb-14 13:40N 31°06' E 122°50'212.6
2018-Feb-14 13:29N 31°06' E 122°47'612.3
2018-Feb-14 13:00N 31°06' E 122°40'812.8
2018-Feb-14 12:22N 31°06' E 122°31'616.1
2018-Feb-14 12:00N 31°06' E 122°24'6 7.0 170 / 181002.7 1.1 7.7 3.5 7.7
2018-Feb-14 11:12N 31°07' E 122°18'1013.1
2018-Feb-14 10:24N 31°13' E 122°08'513.3
2018-Feb-14 10:00N 31°14' E 122°02'1114.5
2018-Feb-14 09:13N 31°17' E 121°49'314.0
2018-Feb-14 09:00N 31°18' E 121°46'711.0
2018-Feb-14 08:24N 31°21' E 121°39'511.9
2018-Feb-14 08:00N 31°24' E 121°34'4 7.0
2018-Feb-14 07:30N 31°25' E 121°30'0 0.0
2018-Feb-14 03:44N 31°25' E 121°30'0 0.0
2018-Feb-14 03:25N 31°25' E 121°30'0 0.0
2018-Feb-14 02:56N 31°25' E 121°30'0 0.0
2018-Feb-14 02:30N 31°25' E 121°30'0 0.0
2018-Feb-14 01:58N 31°25' E 121°30'0 0.0
2018-Feb-14 01:24N 31°25' E 121°30'0 0.0
2018-Feb-14 00:39N 31°25' E 121°30'0 0.0
2018-Feb-14 00:30N 31°25' E 121°30'0 0.0
2018-Feb-14 00:00N 31°25' E 121°30'0 0.0
2018-Feb-13 23:29N 31°25' E 121°30'0 0.7
2018-Feb-13 22:59N 31°25' E 121°31'5 8.6
2018-Feb-13 22:28N 31°23' E 121°36'511.8
2018-Feb-13 22:00N 31°20' E 121°41'610.8
2018-Feb-13 21:29N 31°18' E 121°47'612.3
2018-Feb-13 20:59N 31°16' E 121°54'612.0
2018-Feb-13 20:30N 31°15' E 122°00'611.8
2018-Feb-13 20:00N 31°13' E 122°07'611.9
2018-Feb-13 19:30N 31°10' E 122°13'612.6
2018-Feb-13 19:00N 31°06' E 122°19'712.6
2018-Feb-13 18:27N 31°07' E 122°27'8513.1
2018-Feb-13 12:00N 31°06' E 124°06'159 3.2 180 / 251010.7 2.2 8.4 8.410.7
2018-Feb-11 11:00N 31°48' E 127°06'5413.5 330 / 301017.2 2.2 5.7 1.117.2
2018-Feb-11 07:00N 31°30' E 126°06'14612.1 290 / 201023.7 5.4 8.4-1.014.4
2018-Feb-10 19:00N 31°06' E 123°18'4012.0 010 / 301027.4 7.4 0.514.4
2018-Feb-10 15:38N 31°06' E 122°31'514.8
2018-Feb-10 15:17N 31°06' E 122°25'511.4
2018-Feb-10 14:52N 31°06' E 122°19'1713.0
2018-Feb-10 13:34N 31°14' E 122°02'614.3
2018-Feb-10 13:09N 31°15' E 121°55'214.5
2018-Feb-10 13:00N 31°16' E 121°53'2121.0
2018-Feb-10 12:00N 31°24' E 121°30'726.7 020 / 131012.2 5.4 5.7 1.1 8.7
2018-Feb-10 11:43N 31°22' E 121°38'211.1
2018-Feb-10 11:30N 31°23' E 121°36'510.3
2018-Feb-10 11:00N 31°25' E 121°30'0 0.2
2018-Feb-10 10:28N 31°25' E 121°30'0 0.0
2018-Feb-10 09:55N 31°25' E 121°30'0 0.0
2018-Feb-10 09:28N 31°25' E 121°30'0 0.0
2018-Feb-10 08:42N 31°25' E 121°30'0 0.0
2018-Feb-10 08:30N 31°25' E 121°30'1 1.5
2018-Feb-10 08:00N 31°24' E 121°30'118.9 010 / 201013.2 2.2 8.4 6.4 8.7
2018-Feb-10 07:57N 31°25' E 121°30'0 0.0
2018-Feb-10 07:30N 31°25' E 121°30'0 0.0
2018-Feb-10 07:00N 31°25' E 121°30'0 0.0
2018-Feb-10 06:17N 31°25' E 121°30'0 0.0
2018-Feb-10 05:59N 31°25' E 121°30'0 0.0
2018-Feb-10 05:20N 31°25' E 121°30'0 0.0
2018-Feb-10 04:38N 31°25' E 121°30'0 0.0
2018-Feb-10 04:22N 31°25' E 121°30'0 0.0
2018-Feb-10 03:58N 31°25' E 121°30'0 0.0
2018-Feb-10 03:28N 31°25' E 121°30'0 0.0
2018-Feb-10 02:49N 31°25' E 121°30'0 0.0
2018-Feb-10 02:28N 31°25' E 121°30'0 0.0
2018-Feb-10 01:57N 31°25' E 121°30'0 0.0
2018-Feb-10 01:30N 31°25' E 121°30'0 0.0
2018-Feb-10 00:48N 31°25' E 121°30'0 0.0
2018-Feb-10 00:18N 31°25' E 121°30'0 0.0
2018-Feb-09 23:51N 31°25' E 121°30'0 0.1
2018-Feb-09 23:30N 31°25' E 121°30'2 3.2
2018-Feb-09 23:00N 31°24' E 121°32'311.2
2018-Feb-09 22:46N 31°23' E 121°35'2910.5
2018-Feb-09 20:00N 31°13' E 122°07'9560.8
2018-Feb-09 20:00N 31°06' E 122°12'3 7.0 320 / 121020.4 0.5 8.7 8.710.4
2018-Feb-09 19:30N 31°09' E 122°13'14311.4
2018-Feb-09 07:00N 31°00' E 125°00'41 5.9 180 / 101019.7 5.4 7.4 3.110.4
2018-Feb-09 00:00N 31°00' E 125°48'11328.3 250 / 81011.4 5.4 9.2 2.816.4
2018-Feb-08 20:00N 31°00' E 128°00'11318.9 180 / 101021.710.8 9.7 2.718.4
2018-Feb-08 14:00N 31°00' E 130°12'   070 / 101022.210.8 10.0 4.1

Dump ship's entire track history